Time;durP1;ratioP1;P1;durP2;ratioP2;P2;SDS_P1;SDS_P2;PMS_P1;PMS_P2;Temp;Humidity;BMP_temperature;BMP_pressure;BME280_temperature;BME280_humidity;BME280_pressure;Samples;Min_cycle;Max_cycle;Signal;HPM_P1;HPM_P2
2021/10/18 00:02:12;;;;;;;306.20;56.85;;;;;;;12.81;61.30;95926.56;4953333;28;20019;-70
2021/10/18 00:04:38;;;;;;;296.92;53.75;;;;;;;12.58;61.86;95925.69;4958741;28;20047;-70
2021/10/18 00:07:03;;;;;;;349.10;55.60;;;;;;;12.22;62.67;95918.34;4951636;28;20050;-70
2021/10/18 00:09:28;;;;;;;262.83;53.63;;;;;;;12.03;62.98;95921.09;4951128;28;20122;-69
2021/10/18 00:11:55;;;;;;;236.55;51.92;;;;;;;12.16;62.69;95919.53;4950333;28;20096;-69
2021/10/18 00:14:20;;;;;;;401.83;59.60;;;;;;;12.48;62.08;95930.13;4953154;28;20418;-70
2021/10/18 00:16:46;;;;;;;235.73;54.83;;;;;;;12.98;61.18;95924.84;4951489;28;20126;-70
2021/10/18 00:19:12;;;;;;;459.25;68.32;;;;;;;12.97;61.18;95928.63;4950373;28;20122;-69
2021/10/18 00:21:37;;;;;;;292.58;53.80;;;;;;;12.33;61.95;95925.06;4951338;28;20063;-69
2021/10/18 00:24:03;;;;;;;346.30;54.97;;;;;;;12.45;61.97;95925.38;4954221;28;20035;-69
2021/10/18 00:26:28;;;;;;;296.77;53.58;;;;;;;12.25;62.91;95925.75;4972752;28;20107;-69
2021/10/18 00:28:53;;;;;;;245.20;54.55;;;;;;;12.85;61.45;95923.00;4970185;28;20043;-69
2021/10/18 00:31:19;;;;;;;332.00;55.58;;;;;;;12.77;61.08;95922.91;4985440;28;20043;-68
2021/10/18 00:33:45;;;;;;;269.35;54.60;;;;;;;13.25;60.21;95933.91;4955850;28;20504;-68
2021/10/18 00:36:10;;;;;;;246.00;53.70;;;;;;;12.88;60.09;95940.28;4952726;28;20042;-69
2021/10/18 00:38:36;;;;;;;273.90;51.70;;;;;;;12.58;61.57;95926.47;4964884;28;20031;-68
2021/10/18 00:41:01;;;;;;;327.75;51.20;;;;;;;12.41;61.66;95927.06;4968831;28;20493;-69
2021/10/18 00:43:26;;;;;;;390.95;58.72;;;;;;;12.60;61.10;95934.19;4969824;28;20035;-68
2021/10/18 00:45:52;;;;;;;290.63;50.05;;;;;;;12.60;61.21;95926.19;4970112;28;20051;-69
2021/10/18 00:48:17;;;;;;;378.00;53.33;;;;;;;12.33;62.07;95922.41;4964876;28;20830;-69
2021/10/18 00:50:43;;;;;;;278.02;50.70;;;;;;;12.59;60.75;95924.59;4976225;28;20031;-69
2021/10/18 00:53:10;;;;;;;334.23;50.30;;;;;;;12.57;61.12;95924.09;4936386;28;20023;-69
2021/10/18 00:55:35;;;;;;;371.95;51.25;;;;;;;12.03;62.35;95920.28;4945327;29;20114;-69
2021/10/18 00:58:01;;;;;;;349.23;50.60;;;;;;;12.42;61.77;95939.31;4950654;28;20489;-69
2021/10/18 01:00:26;;;;;;;287.95;48.58;;;;;;;12.44;61.41;95944.38;4950281;28;20509;-70
2021/10/18 01:02:52;;;;;;;266.55;45.78;;;;;;;12.15;61.41;95933.94;4949967;28;20031;-69
2021/10/18 01:05:18;;;;;;;251.88;45.22;;;;;;;12.24;61.48;95937.53;4961648;28;20041;-70
2021/10/18 01:07:46;;;;;;;272.15;49.13;;;;;;;12.97;59.98;95923.28;4956505;28;20066;-68
2021/10/18 01:10:11;;;;;;;276.42;53.00;;;;;;;13.34;59.33;95934.78;4950015;28;20039;-68
2021/10/18 01:12:36;;;;;;;219.52;47.50;;;;;;;12.29;60.74;95929.44;4950117;28;20579;-69
2021/10/18 01:15:03;;;;;;;197.48;43.30;;;;;;;11.22;63.76;95923.16;4950058;28;20057;-69
2021/10/18 01:17:29;;;;;;;263.77;48.20;;;;;;;12.64;60.31;95925.31;4952082;28;20043;-68
2021/10/18 01:19:54;;;;;;;467.25;67.00;;;;;;;13.04;60.16;95920.19;4949971;28;20027;-69
2021/10/18 01:22:19;;;;;;;263.95;50.50;;;;;;;13.13;59.58;95920.28;4950505;28;20043;-70
2021/10/18 01:24:45;;;;;;;343.45;60.38;;;;;;;13.00;59.73;95928.03;4950886;28;20389;-68
2021/10/18 01:27:12;;;;;;;251.93;46.53;;;;;;;12.73;59.81;95933.38;4951057;28;20038;-68
2021/10/18 01:29:38;;;;;;;328.08;56.10;;;;;;;13.06;59.31;95911.91;4951936;28;20035;-69
2021/10/18 01:32:05;;;;;;;288.98;50.47;;;;;;;13.50;58.54;95930.66;4950945;28;20042;-69
2021/10/18 01:34:31;;;;;;;364.00;54.58;;;;;;;13.47;58.06;95915.25;4964282;28;20132;-70
2021/10/18 01:36:59;;;;;;;249.07;48.28;;;;;;;13.42;58.30;95918.03;4970079;28;20047;-69
2021/10/18 01:39:25;;;;;;;213.05;46.13;;;;;;;13.33;58.13;95919.84;4969403;28;20523;-69
2021/10/18 01:41:51;;;;;;;519.33;64.78;;;;;;;13.69;57.73;95922.47;4969881;28;20035;-69
2021/10/18 01:44:17;;;;;;;277.83;56.92;;;;;;;13.88;57.11;95916.94;4971379;28;20064;-68
2021/10/18 01:46:43;;;;;;;283.10;56.67;;;;;;;13.96;56.99;95921.53;4969855;28;20039;-70
2021/10/18 01:49:08;;;;;;;301.65;48.72;;;;;;;13.56;56.80;95923.31;4966066;28;20126;-69
2021/10/18 01:51:34;;;;;;;201.02;47.25;;;;;;;13.75;56.92;95918.59;4957782;28;20114;-69
2021/10/18 01:54:00;;;;;;;386.75;56.17;;;;;;;14.26;56.58;95922.66;4952668;28;20102;-69
2021/10/18 01:56:25;;;;;;;502.63;63.13;;;;;;;14.34;56.22;95921.13;4971538;28;20039;-69
2021/10/18 01:58:51;;;;;;;306.65;56.70;;;;;;;14.54;55.62;95920.59;4969319;28;20038;-69
2021/10/18 02:01:16;;;;;;;384.10;66.97;;;;;;;14.62;55.19;95926.28;4969211;28;20035;-69
2021/10/18 02:03:41;;;;;;;229.13;48.72;;;;;;;14.18;55.03;95917.28;4962092;28;20066;-67
2021/10/18 02:06:11;;;;;;;321.50;52.60;;;;;;;14.32;55.14;95931.34;4950139;28;20047;-69
2021/10/18 02:08:37;;;;;;;434.20;66.47;;;;;;;14.42;55.07;95903.50;4951313;28;20469;-68
2021/10/18 02:11:04;;;;;;;148.90;50.22;;;;;;;14.66;55.01;95925.38;4949466;28;20039;-69
2021/10/18 02:13:29;;;;;;;220.25;47.45;;;;;;;13.68;56.00;95930.81;4949165;28;20051;-69
2021/10/18 02:15:55;;;;;;;293.70;52.63;;;;;;;14.42;55.50;95932.97;4959317;28;20051;-69
2021/10/18 02:18:20;;;;;;;271.85;48.17;;;;;;;14.47;55.35;95939.00;4966470;28;20043;-68
2021/10/18 02:20:46;;;;;;;411.40;59.30;;;;;;;14.53;54.81;95935.06;4954740;28;20031;-68
2021/10/18 02:23:11;;;;;;;363.35;58.35;;;;;;;14.56;54.74;95929.09;4951292;28;20582;-68
2021/10/18 02:25:37;;;;;;;208.15;44.13;;;;;;;14.05;55.14;95940.31;4934207;28;20068;-69
2021/10/18 02:28:02;;;;;;;289.65;54.60;;;;;;;14.39;55.07;95920.22;4930527;29;20501;-69
2021/10/18 02:30:28;;;;;;;375.58;55.42;;;;;;;14.26;55.10;95925.31;4936085;28;20083;-69
2021/10/18 02:32:53;;;;;;;220.23;46.35;;;;;;;14.15;55.16;95923.22;4949978;28;20039;-68
2021/10/18 02:35:18;;;;;;;312.38;47.30;;;;;;;13.71;55.81;95924.84;4959396;28;20033;-68
2021/10/18 02:37:44;;;;;;;290.77;47.53;;;;;;;13.51;56.57;95937.63;4948806;28;20039;-69
2021/10/18 02:40:10;;;;;;;167.27;45.55;;;;;;;14.01;56.37;95939.34;4960506;28;20508;-68
2021/10/18 02:42:35;;;;;;;343.02;49.95;;;;;;;13.21;57.20;95948.97;4970926;28;20408;-68
2021/10/18 02:45:01;;;;;;;373.90;51.10;;;;;;;13.65;56.69;95936.75;4972140;28;20050;-69
2021/10/18 02:47:26;;;;;;;300.48;47.22;;;;;;;13.25;56.91;95931.25;4974417;28;20034;-69
2021/10/18 02:49:52;;;;;;;359.80;50.28;;;;;;;13.62;56.52;95932.03;4962923;28;20038;-69
2021/10/18 02:52:17;;;;;;;234.45;48.45;;;;;;;13.69;56.71;95927.84;4954506;28;20031;-69
2021/10/18 02:54:42;;;;;;;283.60;47.85;;;;;;;13.06;58.83;95936.72;4944285;28;20043;-70
2021/10/18 02:57:08;;;;;;;317.17;45.63;;;;;;;12.18;60.65;95950.16;4937278;28;20485;-69
2021/10/18 02:59:33;;;;;;;279.38;46.33;;;;;;;12.07;61.46;95948.75;4954333;28;20027;-69
2021/10/18 03:01:59;;;;;;;439.05;54.63;;;;;;;12.60;60.65;95942.19;4934371;28;20126;-70
2021/10/18 03:04:24;;;;;;;269.33;46.45;;;;;;;12.90;59.54;95930.91;4953997;28;20047;-69
2021/10/18 03:06:50;;;;;;;522.85;59.33;;;;;;;13.46;58.13;95929.72;4951154;28;20110;-69
2021/10/18 03:09:15;;;;;;;201.88;46.22;;;;;;;13.74;57.83;95929.59;4942180;28;20043;-69
2021/10/18 03:11:40;;;;;;;336.30;46.67;;;;;;;13.59;57.30;95929.97;4971969;28;20027;-67
2021/10/18 03:14:06;;;;;;;316.42;45.60;;;;;;;12.65;59.41;95948.22;4973528;28;20546;-69
2021/10/18 03:16:32;;;;;;;544.28;59.33;;;;;;;13.46;57.68;95944.94;4971985;28;20035;-69
2021/10/18 03:18:58;;;;;;;241.23;44.80;;;;;;;12.89;58.89;95947.22;4961436;28;20039;-69
2021/10/18 03:21:23;;;;;;;354.73;50.10;;;;;;;13.12;58.50;95943.53;4966989;28;20068;-69
2021/10/18 03:23:49;;;;;;;214.63;45.28;;;;;;;13.07;58.51;95942.84;4951087;28;20023;-69
2021/10/18 03:26:19;;;;;;;240.27;47.05;;;;;;;13.15;57.97;95939.44;4935199;29;20096;-69
2021/10/18 03:28:44;;;;;;;251.45;45.00;;;;;;;12.06;61.69;95946.38;4949126;28;20039;-70
2021/10/18 03:31:10;;;;;;;263.65;49.80;;;;;;;13.09;59.30;95933.44;4952298;28;20039;-70
2021/10/18 03:33:40;;;;;;;255.05;50.85;;;;;;;13.83;57.83;95946.50;4955885;28;20041;-69
2021/10/18 03:36:07;;;;;;;132.32;45.13;;;;;;;14.12;57.32;95932.66;4962905;28;20038;-69
2021/10/18 03:38:33;;;;;;;167.75;43.70;;;;;;;14.18;56.23;95938.69;4953785;29;20082;-69
2021/10/18 03:40:59;;;;;;;308.80;53.92;;;;;;;14.13;56.48;95946.84;4951971;28;20491;-69
2021/10/18 03:43:25;;;;;;;210.98;49.13;;;;;;;14.30;56.04;95946.91;4951662;28;20039;-69
2021/10/18 03:45:50;;;;;;;131.43;48.00;;;;;;;14.29;56.14;95930.06;4952176;28;20434;-70
2021/10/18 03:48:16;;;;;;;137.95;45.42;;;;;;;13.64;56.76;95945.88;4953054;28;20557;-70
2021/10/18 03:50:42;;;;;;;83.97;41.72;;;;;;;14.44;55.72;95946.84;4962696;28;20073;-69
2021/10/18 03:53:08;;;;;;;201.50;45.92;;;;;;;12.90;58.94;95962.16;4955838;28;20098;-70
2021/10/18 03:55:33;;;;;;;174.65;44.20;;;;;;;13.04;57.67;95954.91;4951984;28;20135;-69
2021/10/18 03:57:59;;;;;;;185.00;44.67;;;;;;;12.61;59.88;95952.56;4952139;28;20035;-72
2021/10/18 04:00:25;;;;;;;141.60;41.45;;;;;;;12.58;59.58;95966.50;4951775;28;20058;-72
2021/10/18 04:02:50;;;;;;;208.18;45.50;;;;;;;13.34;58.26;95977.53;4951941;28;20050;-69
2021/10/18 04:05:15;;;;;;;220.48;45.47;;;;;;;13.62;57.85;95991.63;4962431;28;20489;-70
2021/10/18 04:07:44;;;;;;;242.85;47.85;;;;;;;13.29;57.89;95982.22;4958492;28;20039;-69
2021/10/18 04:10:10;;;;;;;260.70;47.28;;;;;;;12.91;58.63;95990.44;4951899;28;20070;-69
2021/10/18 04:12:35;;;;;;;147.85;41.83;;;;;;;12.60;60.04;96006.25;4951888;28;20130;-69
2021/10/18 04:15:01;;;;;;;293.10;47.80;;;;;;;12.36;60.12;95996.53;4950186;28;20130;-69
2021/10/18 04:17:26;;;;;;;319.40;48.83;;;;;;;12.35;60.72;96005.63;4953571;28;20039;-70
2021/10/18 04:19:52;;;;;;;295.77;41.95;;;;;;;11.77;61.45;96023.84;4958245;28;20046;-72
2021/10/18 04:22:17;;;;;;;429.33;53.53;;;;;;;12.92;59.23;96010.72;4957907;28;20116;-69
2021/10/18 04:24:43;;;;;;;374.40;44.05;;;;;;;13.08;58.43;96020.00;4950917;28;20054;-72
2021/10/18 04:27:08;;;;;;;227.55;40.92;;;;;;;12.75;58.71;96008.63;4951348;28;20039;-72
2021/10/18 04:29:34;;;;;;;114.90;37.47;;;;;;;12.59;58.29;96012.66;4952800;28;20051;-70
2021/10/18 04:31:59;;;;;;;174.80;39.55;;;;;;;12.69;58.51;96013.28;4951270;28;20068;-69
2021/10/18 04:34:28;;;;;;;251.80;41.63;;;;;;;12.70;58.85;96011.41;4953113;28;20505;-69
2021/10/18 04:36:54;;;;;;;242.35;42.10;;;;;;;13.37;57.54;96030.41;4960940;28;20600;-69
2021/10/18 04:39:20;;;;;;;335.08;47.30;;;;;;;13.72;56.46;96028.03;4950422;28;20122;-69
2021/10/18 04:41:46;;;;;;;622.50;58.03;;;;;;;13.94;56.37;96030.72;4950802;28;20026;-72
2021/10/18 04:44:11;;;;;;;187.45;42.47;;;;;;;13.98;55.97;96021.00;4952677;28;20036;-70
2021/10/18 04:46:36;;;;;;;100.05;43.13;;;;;;;14.30;55.38;96021.84;4950914;28;20047;-70
2021/10/18 04:49:02;;;;;;;82.45;41.47;;;;;;;14.57;55.18;96024.38;4950305;28;20024;-70
2021/10/18 04:51:28;;;;;;;438.42;47.05;;;;;;;13.99;55.22;96033.28;4961695;28;20031;-70
2021/10/18 04:53:53;;;;;;;500.20;50.25;;;;;;;14.13;55.06;96037.81;4955122;28;20090;-70
2021/10/18 04:56:18;;;;;;;377.63;51.03;;;;;;;14.20;54.66;96038.94;4952711;29;20473;-70
2021/10/18 04:58:44;;;;;;;497.13;49.22;;;;;;;13.04;57.39;96037.69;4950390;28;20110;-70
2021/10/18 05:01:09;;;;;;;597.35;57.17;;;;;;;13.49;56.92;96053.94;4950440;28;20039;-70
2021/10/18 05:03:35;;;;;;;266.85;51.35;;;;;;;13.91;56.29;96028.66;4949640;28;20073;-70
2021/10/18 05:06:00;;;;;;;204.85;49.38;;;;;;;14.32;55.47;96043.72;4956308;28;20043;-71
2021/10/18 05:08:25;;;;;;;322.27;48.78;;;;;;;14.13;55.80;96059.22;4959939;28;20433;-69
2021/10/18 05:10:51;;;;;;;654.42;66.20;;;;;;;14.40;54.99;96047.56;4950097;28;20043;-70
2021/10/18 05:13:16;;;;;;;335.92;51.75;;;;;;;14.54;54.65;96053.69;4950006;28;20113;-70
2021/10/18 05:15:42;;;;;;;627.70;61.38;;;;;;;14.74;54.59;96052.34;4950230;28;20050;-70
2021/10/18 05:18:08;;;;;;;94.90;42.17;;;;;;;14.99;54.46;96046.31;4949032;28;20050;-70
2021/10/18 05:20:34;;;;;;;95.32;42.60;;;;;;;15.08;53.94;96038.31;4958470;28;20408;-73
2021/10/18 05:23:00;;;;;;;440.27;49.42;;;;;;;14.22;53.91;96038.63;4957992;28;20082;-75
2021/10/18 05:25:27;;;;;;;139.65;43.03;;;;;;;14.73;53.67;96034.69;4946953;28;20151;-73
2021/10/18 05:27:58;;;;;;;161.30;43.55;;;;;;;15.01;54.03;96046.03;4964430;28;20039;-84
2021/10/18 05:30:26;;;;;;;85.35;42.05;;;;;;;15.01;53.67;96020.00;4946637;28;20076;-80
2021/10/18 05:32:53;;;;;;;392.50;48.30;;;;;;;15.03;53.08;96033.09;4949613;28;20015;-81
2021/10/18 05:35:19;;;;;;;282.58;43.50;;;;;;;14.73;53.36;96048.88;4959360;28;20030;-75
2021/10/18 05:37:45;;;;;;;211.23;47.42;;;;;;;15.03;53.12;96060.69;4965195;28;20032;-67
2021/10/18 05:40:12;;;;;;;82.57;41.00;;;;;;;15.20;53.34;96059.16;4950148;28;20517;-70
2021/10/18 05:42:38;;;;;;;222.18;46.65;;;;;;;15.14;52.57;96047.78;4950029;28;20035;-79
2021/10/18 05:45:04;;;;;;;249.63;45.08;;;;;;;14.42;53.76;96080.97;4949224;28;20050;-77
2021/10/18 05:47:29;;;;;;;152.18;41.58;;;;;;;14.53;53.95;96068.13;4952717;28;20033;-67
2021/10/18 05:49:55;;;;;;;163.20;42.88;;;;;;;14.14;55.35;96079.50;4956048;28;20047;-68
2021/10/18 05:52:22;;;;;;;191.30;42.42;;;;;;;13.79;56.43;96095.25;4960373;28;20058;-76
2021/10/18 05:54:47;;;;;;;198.10;46.35;;;;;;;14.15;55.84;96089.13;4965237;28;20035;-69
2021/10/18 05:57:12;;;;;;;237.30;52.13;;;;;;;14.20;55.66;96099.69;4950632;28;20118;-81
2021/10/18 05:59:38;;;;;;;437.13;58.20;;;;;;;14.49;54.91;96083.25;4951824;28;20079;-73
2021/10/18 06:02:04;;;;;;;314.42;49.03;;;;;;;13.69;56.67;96104.28;4950318;28;20035;-72
2021/10/18 06:04:30;;;;;;;309.75;49.42;;;;;;;13.90;55.95;96085.91;4952010;28;20539;-73
2021/10/18 06:06:55;;;;;;;427.00;60.80;;;;;;;14.24;55.75;96112.16;4961095;28;20035;-81
2021/10/18 06:09:21;;;;;;;258.98;47.28;;;;;;;13.66;56.86;96109.44;4950814;28;20036;-79
2021/10/18 06:11:46;;;;;;;617.00;63.80;;;;;;;13.26;58.01;96088.59;4948502;28;20086;-73
2021/10/18 06:14:12;;;;;;;286.27;46.75;;;;;;;13.20;57.88;96097.75;4950033;28;20118;-71
2021/10/18 06:16:38;;;;;;;185.30;44.47;;;;;;;13.41;57.73;96122.25;4950025;28;20039;-69
2021/10/18 06:19:03;;;;;;;188.80;47.45;;;;;;;12.91;58.86;96119.41;4949249;28;20035;-79
2021/10/18 06:21:29;;;;;;;108.35;41.90;;;;;;;13.60;57.87;96122.13;4953676;28;20050;-71
2021/10/18 06:23:54;;;;;;;240.13;50.22;;;;;;;14.34;56.87;96113.03;4953900;28;20417;-66
2021/10/18 06:26:20;;;;;;;93.82;42.53;;;;;;;14.48;55.50;96121.81;4952118;28;20023;-73
2021/10/18 06:28:45;;;;;;;122.18;41.50;;;;;;;13.70;57.06;96124.59;4949231;28;20387;-72
2021/10/18 06:31:10;;;;;;;155.55;45.10;;;;;;;13.90;56.39;96134.06;4964365;28;20657;-70
2021/10/18 06:33:36;;;;;;;225.82;44.92;;;;;;;12.78;59.33;96141.50;4949196;28;20043;-74
2021/10/18 06:36:02;;;;;;;294.70;49.58;;;;;;;13.25;58.63;96137.75;4957775;28;20740;-77
2021/10/18 06:38:27;;;;;;;136.27;46.80;;;;;;;14.10;56.88;96140.06;4952585;28;20042;-71
2021/10/18 06:40:53;;;;;;;266.23;49.53;;;;;;;14.26;56.13;96125.25;4948662;28;20046;-74
2021/10/18 06:43:19;;;;;;;185.25;45.17;;;;;;;14.13;55.51;96134.13;4950157;28;20038;-73
2021/10/18 06:45:46;;;;;;;116.25;43.83;;;;;;;14.68;55.30;96139.28;4949563;28;20039;-80
2021/10/18 06:48:14;;;;;;;149.82;44.42;;;;;;;15.14;54.67;96141.56;4950290;28;20046;-70
2021/10/18 06:50:43;;;;;;;175.90;41.13;;;;;;;14.55;54.62;96136.38;4953426;28;20029;-72
2021/10/18 06:53:15;;;;;;;226.25;45.83;;;;;;;14.52;54.44;96145.00;4958767;28;20122;-76
2021/10/18 06:55:42;;;;;;;228.68;46.17;;;;;;;14.71;54.81;96152.84;4949281;28;20115;-73
2021/10/18 06:58:07;;;;;;;257.42;47.20;;;;;;;14.55;54.63;96148.97;4949007;28;20035;-73
2021/10/18 07:00:33;;;;;;;177.05;41.10;;;;;;;14.05;55.37;96143.63;4949034;28;20478;-73
2021/10/18 07:02:59;;;;;;;224.48;45.60;;;;;;;14.79;54.27;96140.59;4948958;28;20130;-74
2021/10/18 07:05:24;;;;;;;209.05;41.22;;;;;;;14.28;55.35;96163.22;4951446;29;20039;-74
2021/10/18 07:07:50;;;;;;;164.75;38.47;;;;;;;13.92;56.25;96147.13;4950001;28;20398;-76
2021/10/18 07:10:15;;;;;;;266.67;40.50;;;;;;;14.32;55.19;96156.13;4950005;28;20451;-75
2021/10/18 07:12:41;;;;;;;303.13;38.47;;;;;;;13.69;56.74;96148.94;4948139;28;20031;-75
2021/10/18 07:15:07;;;;;;;232.02;42.20;;;;;;;14.50;56.07;96154.44;4961263;28;20506;-77
2021/10/18 07:17:32;;;;;;;224.65;40.08;;;;;;;14.70;54.78;96158.53;4951488;28;20030;-76
2021/10/18 07:19:58;;;;;;;128.68;38.97;;;;;;;15.17;54.26;96181.19;4955860;28;20027;-76
2021/10/18 07:22:27;;;;;;;157.48;36.05;;;;;;;15.51;53.85;96169.81;4951412;28;20633;-70
2021/10/18 07:24:54;;;;;;;184.55;39.72;;;;;;;15.22;52.90;96180.25;4948988;28;20035;-72
2021/10/18 07:27:20;;;;;;;161.57;36.55;;;;;;;14.90;54.05;96174.09;4947942;28;20087;-72
2021/10/18 07:29:45;;;;;;;186.38;38.55;;;;;;;15.66;53.13;96171.34;4951791;28;20027;-73
2021/10/18 07:32:11;;;;;;;150.02;37.65;;;;;;;15.19;52.45;96178.19;4952900;28;20038;-70
2021/10/18 07:34:37;;;;;;;195.07;37.05;;;;;;;14.65;54.38;96172.03;4954024;28;20030;-70
2021/10/18 07:37:03;;;;;;;253.70;38.90;;;;;;;15.44;53.28;96188.22;4955275;28;20051;-71
2021/10/18 07:39:28;;;;;;;221.13;36.47;;;;;;;15.24;53.02;96186.09;4951735;28;20043;-70
2021/10/18 07:41:57;;;;;;;172.05;38.05;;;;;;;15.34;53.37;96177.78;4952606;28;20023;-74
2021/10/18 07:44:27;;;;;;;194.70;35.83;;;;;;;14.57;55.03;96194.94;4953677;29;20043;-73
2021/10/18 07:46:55;;;;;;;280.02;40.58;;;;;;;15.47;53.73;96195.66;4952488;28;20046;-73
2021/10/18 07:49:22;;;;;;;192.68;37.20;;;;;;;15.57;53.05;96184.66;4953315;28;20042;-75
2021/10/18 07:51:49;;;;;;;193.05;38.13;;;;;;;15.86;52.42;96172.63;4963839;28;20038;-76
2021/10/18 07:54:14;;;;;;;114.72;34.15;;;;;;;16.17;51.84;96194.00;4961041;28;20509;-76
2021/10/18 07:56:40;;;;;;;101.85;35.03;;;;;;;15.53;52.02;96196.31;4954492;29;20038;-75
2021/10/18 07:59:05;;;;;;;77.32;35.67;;;;;;;16.32;51.29;96182.00;4967118;28;20404;-77
2021/10/18 08:01:31;;;;;;;109.18;35.42;;;;;;;16.63;50.69;96188.06;4953414;28;20040;-76
2021/10/18 08:03:56;;;;;;;99.65;36.17;;;;;;;16.66;50.25;96186.63;4967716;28;20044;-77
2021/10/18 08:06:21;;;;;;;76.93;35.97;;;;;;;16.89;50.06;96181.91;4977747;28;20508;-75
2021/10/18 08:08:50;;;;;;;72.03;35.25;;;;;;;17.17;49.54;96187.69;4957539;28;20030;-76
2021/10/18 08:11:15;;;;;;;65.90;35.33;;;;;;;17.41;48.88;96200.59;4954617;28;20031;-76
2021/10/18 08:13:41;;;;;;;76.88;35.72;;;;;;;17.66;48.62;96199.72;4952336;28;20102;-76
2021/10/18 08:16:06;;;;;;;59.47;33.65;;;;;;;17.66;48.15;96183.56;4967868;28;20118;-76
2021/10/18 08:18:33;;;;;;;57.05;32.55;;;;;;;17.93;47.49;96186.94;4952903;28;20050;-75
2021/10/18 08:20:59;;;;;;;69.22;32.80;;;;;;;18.09;47.50;96196.03;4966954;28;20059;-76
2021/10/18 08:23:24;;;;;;;57.78;31.75;;;;;;;18.39;46.91;96198.69;4961494;28;21547;-75
2021/10/18 08:25:50;;;;;;;47.22;27.90;;;;;;;18.65;46.00;96206.56;4952322;28;20082;-76
2021/10/18 08:28:15;;;;;;;39.88;26.58;;;;;;;18.86;45.09;96199.28;4952294;28;20043;-75
2021/10/18 08:30:41;;;;;;;40.05;27.23;;;;;;;19.10;44.58;96206.69;4952186;28;20071;-75
2021/10/18 08:33:06;;;;;;;36.83;26.05;;;;;;;19.25;43.95;96212.59;4951884;28;20035;-75
2021/10/18 08:35:33;;;;;;;34.75;25.67;;;;;;;19.30;43.81;96199.66;4953472;28;20065;-75
2021/10/18 08:38:21;;;;;;;39.15;27.38;;;;;;;19.45;43.45;96217.13;4959022;28;20035;-75
2021/10/18 08:45:51;;;;;;;41.38;25.75;;;;;;;19.77;42.44;96218.19;4952117;28;20045;-76
2021/10/18 08:48:16;;;;;;;41.78;27.33;;;;;;;19.83;42.55;96206.06;4952268;28;20114;-76
2021/10/18 08:50:42;;;;;;;36.75;26.25;;;;;;;19.69;42.49;96208.28;4951309;28;20110;-75
2021/10/18 08:53:07;;;;;;;40.22;26.50;;;;;;;19.82;42.28;96219.91;4952581;28;20030;-75
2021/10/18 08:55:37;;;;;;;38.45;27.20;;;;;;;19.93;42.22;96215.63;4951990;28;20063;-76
2021/10/18 08:58:06;;;;;;;44.35;26.63;;;;;;;20.00;41.86;96213.91;4963081;28;20097;-77
2021/10/18 09:00:48;;;;;;;42.95;26.75;;;;;;;20.13;41.61;96212.00;4971068;28;20035;-75
2021/10/18 09:03:25;;;;;;;35.47;26.25;;;;;;;17.91;45.18;96226.84;4970840;28;20047;-76
2021/10/18 09:06:12;;;;;;;39.97;26.42;;;;;;;17.87;45.21;96228.63;4960564;28;20366;-76
2021/10/18 09:08:55;;;;;;;37.85;26.50;;;;;;;18.56;44.63;96217.41;4946202;29;20027;-75
2021/10/18 09:11:26;;;;;;;42.25;27.75;;;;;;;18.60;44.76;96221.03;4952306;28;20670;-76
2021/10/18 09:13:52;;;;;;;41.07;27.47;;;;;;;19.10;44.27;96230.19;4934113;28;20130;-75
2021/10/18 09:16:34;;;;;;;48.50;29.85;;;;;;;19.42;43.65;96228.56;4945311;28;20564;-76
2021/10/18 09:19:26;;;;;;;39.78;26.45;;;;;;;19.67;43.05;96230.22;4951365;28;20448;-69
2021/10/18 09:22:03;;;;;;;40.67;27.15;;;;;;;19.91;42.58;96225.94;4936054;28;20055;-80
2021/10/18 09:24:29;;;;;;;37.65;26.73;;;;;;;20.09;42.53;96224.63;4940725;28;20125;-75
2021/10/18 09:26:59;;;;;;;33.70;24.58;;;;;;;20.34;41.70;96219.97;4951337;28;20110;-72
2021/10/18 09:29:44;;;;;;;35.35;25.80;;;;;;;20.37;41.06;96213.09;4953464;28;20114;-72
2021/10/18 09:32:10;;;;;;;34.72;26.17;;;;;;;19.45;41.31;96209.03;4947368;29;20047;-76
2021/10/18 09:34:36;;;;;;;32.75;24.60;;;;;;;19.48;42.23;96229.94;4945631;28;20039;-78
2021/10/18 09:37:10;;;;;;;36.10;25.65;;;;;;;19.64;42.07;96225.47;4951668;28;20525;-78
2021/10/18 09:39:43;;;;;;;34.80;25.92;;;;;;;19.68;41.72;96221.00;4943067;28;20046;-73
2021/10/18 09:42:14;;;;;;;37.15;27.55;;;;;;;19.01;42.39;96230.25;4949320;28;20040;-73
2021/10/18 10:52:40;;;;;;;25.27;22.42;;;;;;;20.98;38.18;96202.13;4949011;28;20182;-71
2021/10/18 10:55:24;;;;;;;27.35;22.45;;;;;;;21.41;38.09;96203.31;4947303;28;20090;-74
2021/10/18 10:57:52;;;;;;;31.38;24.88;;;;;;;21.45;37.75;96175.22;4955868;28;20047;-73
2021/10/18 11:00:41;;;;;;;27.85;24.13;;;;;;;21.41;38.13;96190.56;4966864;28;20132;-73
2021/10/18 11:03:31;;;;;;;25.95;21.67;;;;;;;21.79;38.11;96181.06;4969263;28;20765;-73
2021/10/18 11:06:14;;;;;;;26.25;22.73;;;;;;;22.11;37.31;96184.56;4962704;28;20541;-74
2021/10/18 11:08:45;;;;;;;26.73;23.33;;;;;;;20.63;38.42;96166.81;4947582;29;20752;-74
2021/10/18 11:11:22;;;;;;;30.13;22.35;;;;;;;19.95;40.17;96162.84;4952094;28;20047;-75
2021/10/18 11:13:49;;;;;;;31.88;23.70;;;;;;;19.58;41.69;96189.03;4950881;28;20482;-73
2021/10/18 11:16:17;;;;;;;29.63;23.50;;;;;;;19.03;42.14;96167.88;4951260;28;20066;-73
2021/10/18 11:18:48;;;;;;;25.90;22.30;;;;;;;19.37;41.54;96123.56;4952195;28;20133;-74
2021/10/18 11:21:28;;;;;;;32.75;23.73;;;;;;;19.44;42.21;96177.75;4952762;28;20198;-73
2021/10/18 11:24:10;;;;;;;31.38;24.40;;;;;;;17.51;46.84;96169.88;4954872;28;20057;-74
2021/10/18 11:26:39;;;;;;;29.75;23.63;;;;;;;17.56;47.89;96175.84;4960252;28;20027;-73
2021/10/18 11:29:09;;;;;;;28.33;23.00;;;;;;;17.93;46.04;96138.50;4933011;28;20727;-74
2021/10/18 11:31:41;;;;;;;29.73;23.88;;;;;;;18.79;45.24;96176.69;4948026;28;20566;-73
2021/10/18 11:34:12;;;;;;;35.47;24.38;;;;;;;18.67;44.26;96118.88;4948906;28;20035;-73
2021/10/18 11:36:43;;;;;;;32.00;24.70;;;;;;;17.27;47.96;96173.88;4959497;28;20078;-73
2021/10/18 11:39:10;;;;;;;35.58;25.42;;;;;;;16.50;50.26;96175.56;4959266;28;20425;-74
2021/10/18 11:41:58;;;;;;;32.00;23.80;;;;;;;15.88;51.93;96167.75;4954355;28;20123;-73
2021/10/18 11:44:49;;;;;;;33.80;25.85;;;;;;;16.66;50.07;96162.44;4952127;28;20047;-73
2021/10/18 11:47:37;;;;;;;35.43;24.93;;;;;;;15.81;52.78;96149.41;4952600;28;20474;-74
2021/10/18 11:50:25;;;;;;;30.95;23.17;;;;;;;16.47;50.57;96168.13;4950502;28;20375;-73
2021/10/18 11:53:00;;;;;;;30.50;23.65;;;;;;;16.50;50.12;96129.13;4946853;28;20046;-73
2021/10/18 11:55:33;;;;;;;31.88;24.02;;;;;;;16.90;48.94;96129.72;4951751;28;20121;-74
2021/10/18 11:58:04;;;;;;;30.52;24.02;;;;;;;17.88;47.60;96152.91;4951756;28;20035;-73
2021/10/18 12:00:44;;;;;;;27.88;22.48;;;;;;;18.19;46.22;96141.78;4951630;28;20047;-73
2021/10/18 12:03:15;;;;;;;31.67;22.50;;;;;;;18.68;45.93;96157.41;4951442;28;20038;-73
2021/10/18 12:05:47;;;;;;;32.85;24.17;;;;;;;18.86;44.79;96148.06;4952321;29;20032;-73
2021/10/18 12:08:14;;;;;;;29.20;23.52;;;;;;;18.80;44.82;96132.44;4951850;28;20036;-72
2021/10/18 12:10:41;;;;;;;28.15;22.50;;;;;;;17.80;46.33;96142.97;4951220;28;20614;-73
2021/10/18 12:13:24;;;;;;;31.67;22.35;;;;;;;18.00;46.60;96160.28;4962281;28;20043;-72
2021/10/18 12:16:19;;;;;;;30.45;24.70;;;;;;;17.79;47.05;96143.31;4970755;28;20039;-70
2021/10/18 12:19:00;;;;;;;34.72;23.80;;;;;;;18.12;46.56;96138.84;4970413;28;20062;-70
2021/10/18 12:21:36;;;;;;;32.13;23.88;;;;;;;18.55;45.23;96145.78;4965978;28;20042;-70
2021/10/18 12:24:15;;;;;;;27.45;22.20;;;;;;;18.83;44.44;96134.47;4961585;28;20070;-71
2021/10/18 12:26:52;;;;;;;27.40;21.85;;;;;;;17.73;46.51;96139.25;4946497;28;20027;-70
2021/10/18 12:29:23;;;;;;;26.05;20.23;;;;;;;18.19;46.11;96117.56;4951351;28;20034;-70